Three Stars — 3ELI2 — position and weather

sailwx.info

Track history (hours):
 
Tides and Currents Weather Stations Pressure Air Temp Water Temp Dewpoint Dewpoint Depression Visibility Wind Speed Wind Dir Waves Ship Positions

Three Stars

Last reported at 2015-May-21 15:04 UTC. Time now 2015-May-24 19:14 UTC.
Position N 30°16' E 122°04'.

Length 225 m; draft 7 m.

Type: Cargo ship. MMSI: 372950000.

Date/timePositionNaut miles runAvg speedWind from/ knotsBaromVisibWave heightAir tempDewpointWater temp
2015-May-21 15:04N 30°16' E 122°04'0 0.0
2015-May-20 10:13N 30°16' E 122°04'0 0.0
2015-May-20 07:32N 30°16' E 122°04'7 5.7
2015-May-20 06:23N 30°16' E 121°57'1110.7
2015-May-20 05:22N 30°21' E 121°46'1111.8
2015-May-20 04:25N 30°23' E 121°59'1415.8
2015-May-20 03:34N 30°23' E 122°15'1515.4
2015-May-20 02:33N 30°22' E 122°33'7911.3
2015-May-19 19:33N 31°32' E 123°16'1913.0
2015-May-19 18:06N 31°51' E 123°14'712.0
2015-May-19 17:33N 31°57' E 123°15'1211.9
2015-May-19 16:33N 32°09' E 123°13'1211.5
2015-May-19 15:29N 32°21' E 123°11'1111.6
2015-May-19 14:34N 32°32' E 123°11'1211.6
2015-May-19 13:33N 32°42' E 123°18'1312.3
2015-May-19 12:28N 32°55' E 123°14'1415.1
2015-May-19 11:33N 33°08' E 123°11'1515.0
2015-May-19 10:33N 33°23' E 123°09'  
Track history (hours):
 
Tides and Currents Weather Stations Pressure Air Temp Water Temp Dewpoint Dewpoint Depression Visibility Wind Speed Wind Dir Waves Ship Positions

Three Stars

Last reported at 2015-May-21 15:04 UTC. Time now 2015-May-24 19:14 UTC.
Position N 30°16' E 122°04'.

Length 225 m; draft 7 m.

Type: Cargo ship. MMSI: 372950000.

Date/timePositionNaut miles runAvg speedWind from/ knotsBaromVisibWave heightAir tempDewpointWater temp
2015-May-21 15:04N 30°16' E 122°04'0 0.0
2015-May-20 10:13N 30°16' E 122°04'0 0.0
2015-May-20 07:32N 30°16' E 122°04'7 5.7
2015-May-20 06:23N 30°16' E 121°57'1110.7
2015-May-20 05:22N 30°21' E 121°46'1111.8
2015-May-20 04:25N 30°23' E 121°59'1415.8
2015-May-20 03:34N 30°23' E 122°15'1515.4
2015-May-20 02:33N 30°22' E 122°33'7911.3
2015-May-19 19:33N 31°32' E 123°16'1913.0
2015-May-19 18:06N 31°51' E 123°14'712.0
2015-May-19 17:33N 31°57' E 123°15'1211.9
2015-May-19 16:33N 32°09' E 123°13'1211.5
2015-May-19 15:29N 32°21' E 123°11'1111.6
2015-May-19 14:34N 32°32' E 123°11'1211.6
2015-May-19 13:33N 32°42' E 123°18'1312.3
2015-May-19 12:28N 32°55' E 123°14'1415.1
2015-May-19 11:33N 33°08' E 123°11'1515.0
2015-May-19 10:33N 33°23' E 123°09'  

Dump ship's entire track history